Time;durP1;ratioP1;P1;durP2;ratioP2;P2;SDS_P1;SDS_P2;PMS_P1;PMS_P2;Temp;Humidity;BMP_temperature;BMP_pressure;BME280_temperature;BME280_humidity;BME280_pressure;Samples;Min_cycle;Max_cycle;Signal;HPM_P1;HPM_P2
2021/08/25 00:00:55;;;;;;;3.50;2.73;;;14.00;99.90;;;;;;5126473;27;20548;-38
2021/08/25 00:03:20;;;;;;;3.40;2.93;;;14.00;99.90;;;;;;5116644;27;20441;-39
2021/08/25 00:05:46;;;;;;;5.17;3.13;;;14.00;99.90;;;;;;5126151;27;20596;-41
2021/08/25 00:08:12;;;;;;;4.90;3.07;;;13.90;99.90;;;;;;5126206;27;20431;-40
2021/08/25 00:10:38;;;;;;;5.27;3.00;;;13.90;99.90;;;;;;5126270;27;20241;-38
2021/08/25 00:13:06;;;;;;;4.70;3.10;;;13.80;99.90;;;;;;5107692;27;20210;-38
2021/08/25 00:15:37;;;;;;;5.37;3.10;;;13.80;99.90;;;;;;5106306;28;20843;-38
2021/08/25 00:18:04;;;;;;;3.90;2.47;;;13.80;99.90;;;;;;5106059;28;20461;-39
2021/08/25 00:20:30;;;;;;;3.47;2.73;;;13.80;99.90;;;;;;5119173;28;20449;-38
2021/08/25 00:22:56;;;;;;;5.03;2.97;;;13.70;99.90;;;;;;5126292;28;20463;-40
2021/08/25 00:25:22;;;;;;;7.10;3.47;;;13.80;99.90;;;;;;5126784;28;20186;-41
2021/08/25 00:27:47;;;;;;;7.30;2.57;;;13.70;99.90;;;;;;5126341;28;20676;-40
2021/08/25 00:30:13;;;;;;;5.00;3.30;;;13.70;99.90;;;;;;5125975;28;20428;-40
2021/08/25 00:32:39;;;;;;;3.30;2.83;;;13.70;99.90;;;;;;5124684;28;20197;-39
2021/08/25 00:35:05;;;;;;;3.80;2.77;;;13.70;99.90;;;;;;5114091;28;20714;-37
2021/08/25 00:37:32;;;;;;;5.87;3.07;;;13.70;99.90;;;;;;5126275;28;20206;-39
2021/08/25 00:39:57;;;;;;;3.50;2.97;;;13.70;99.90;;;;;;5125426;28;20429;-41
2021/08/25 00:42:24;;;;;;;3.87;2.90;;;13.70;99.90;;;;;;5126670;28;20431;-39
2021/08/25 00:44:50;;;;;;;4.07;2.80;;;13.50;99.90;;;;;;5126377;28;20464;-40
2021/08/25 00:47:16;;;;;;;6.13;3.00;;;13.50;99.90;;;;;;5126235;28;20903;-40
2021/08/25 00:49:44;;;;;;;3.50;3.00;;;13.50;99.90;;;;;;5115894;28;20279;-40
2021/08/25 00:52:10;;;;;;;6.50;4.00;;;13.50;99.90;;;;;;5126193;28;20436;-39
2021/08/25 00:54:36;;;;;;;3.50;2.77;;;13.40;99.90;;;;;;5126340;28;20460;-41
2021/08/25 00:57:03;;;;;;;3.57;3.20;;;13.40;99.90;;;;;;5126145;28;20240;-39
2021/08/25 00:59:31;;;;;;;4.17;3.30;;;13.30;99.90;;;;;;5125408;28;20741;-38
2021/08/25 01:02:02;;;;;;;5.10;3.57;;;13.30;99.90;;;;;;5107932;28;20428;-40
2021/08/25 01:04:51;;;;;;;5.03;3.73;;;13.40;99.90;;;;;;5113173;28;20448;-40
2021/08/25 01:07:17;;;;;;;5.63;4.00;;;13.30;99.90;;;;;;5122362;28;20427;-38
2021/08/25 01:09:43;;;;;;;4.10;3.50;;;13.20;99.90;;;;;;5107039;28;20456;-39
2021/08/25 01:12:10;;;;;;;5.53;4.27;;;13.20;99.90;;;;;;5126062;28;20926;-38
2021/08/25 01:14:38;;;;;;;5.00;2.60;;;13.20;99.90;;;;;;5112900;28;20547;-38
2021/08/25 01:17:05;;;;;;;4.13;2.93;;;13.40;99.90;;;;;;5105330;28;20428;-39
2021/08/25 01:19:52;;;;;;;3.80;3.07;;;13.50;99.90;;;;;;5109181;28;20440;-39
2021/08/25 01:22:20;;;;;;;3.40;3.10;;;13.50;99.90;;;;;;5121753;28;20420;-41
2021/08/25 01:24:48;;;;;;;4.20;3.37;;;13.40;99.90;;;;;;5128556;27;20432;-38
2021/08/25 01:27:16;;;;;;;4.13;3.20;;;13.30;99.90;;;;;;5129218;27;20519;-38
2021/08/25 01:29:43;;;;;;;3.83;3.10;;;13.30;99.90;;;;;;5129317;27;20428;-39
2021/08/25 01:32:09;;;;;;;5.67;3.73;;;13.30;99.90;;;;;;5129630;27;20783;-38
2021/08/25 01:34:56;;;;;;;5.40;3.10;;;13.10;99.90;;;;;;5121994;27;20464;-39
2021/08/25 01:37:26;;;;;;;4.90;3.57;;;13.00;99.90;;;;;;5107107;27;20938;-38
2021/08/25 01:39:57;;;;;;;5.07;3.10;;;13.00;99.90;;;;;;5129256;27;20429;-39
2021/08/25 01:42:23;;;;;;;5.23;3.73;;;13.10;99.90;;;;;;5129318;27;20444;-38
2021/08/25 01:44:50;;;;;;;4.33;3.50;;;13.00;99.90;;;;;;5129443;27;20436;-41
2021/08/25 01:47:15;;;;;;;4.80;3.40;;;13.00;99.90;;;;;;5129247;27;20471;-38
2021/08/25 01:49:42;;;;;;;4.70;3.37;;;12.90;99.90;;;;;;5117324;27;20811;-39
2021/08/25 01:52:08;;;;;;;7.30;3.90;;;12.90;99.90;;;;;;5128501;27;20225;-38
2021/08/25 01:54:35;;;;;;;5.93;3.40;;;12.90;99.90;;;;;;5129118;27;20893;-39
2021/08/25 01:57:00;;;;;;;4.50;4.10;;;12.90;99.90;;;;;;5129142;27;20435;-41
2021/08/25 01:59:26;;;;;;;4.73;4.00;;;12.90;99.90;;;;;;5128300;27;20429;-39
2021/08/25 02:01:51;;;;;;;4.90;3.70;;;12.90;99.90;;;;;;5129274;27;20186;-38
2021/08/25 02:04:17;;;;;;;4.70;3.60;;;12.90;99.90;;;;;;5118206;27;20419;-39
2021/08/25 02:06:43;;;;;;;6.03;4.00;;;13.00;99.90;;;;;;5127184;27;20225;-39
2021/08/25 02:09:08;;;;;;;3.83;3.43;;;13.10;99.90;;;;;;5123653;27;20211;-41
2021/08/25 02:11:34;;;;;;;6.63;4.00;;;13.00;99.90;;;;;;5128753;27;20286;-38
2021/08/25 02:14:00;;;;;;;7.00;4.30;;;13.10;99.90;;;;;;5121778;27;20195;-40
2021/08/25 02:16:25;;;;;;;4.53;3.70;;;13.10;99.90;;;;;;5089760;28;20198;-38
2021/08/25 02:18:51;;;;;;;4.20;3.50;;;13.00;99.90;;;;;;5108559;27;20244;-38
2021/08/25 02:21:19;;;;;;;5.37;3.60;;;12.90;99.90;;;;;;5122664;27;20187;-39
2021/08/25 02:23:44;;;;;;;4.07;3.43;;;13.00;99.90;;;;;;5128436;27;20576;-37
2021/08/25 02:26:16;;;;;;;5.33;3.43;;;13.00;99.90;;;;;;5110167;27;20417;-38
2021/08/25 02:28:52;;;;;;;3.50;3.10;;;12.90;99.90;;;;;;5127996;27;20187;-38
2021/08/25 02:31:18;;;;;;;5.10;3.23;;;12.80;99.90;;;;;;5128551;27;20450;-38
2021/08/25 02:33:44;;;;;;;4.63;3.80;;;12.70;99.90;;;;;;5124544;27;20794;-38
2021/08/25 02:36:11;;;;;;;4.40;3.70;;;12.70;99.90;;;;;;5123124;27;20464;-38
2021/08/25 02:38:38;;;;;;;5.17;3.73;;;12.70;99.90;;;;;;5128431;27;20436;-40
2021/08/25 02:41:05;;;;;;;5.00;3.93;;;12.70;99.90;;;;;;5127938;27;20453;-38
2021/08/25 02:43:31;;;;;;;5.00;3.73;;;12.60;99.90;;;;;;5128164;27;20431;-38
2021/08/25 02:45:57;;;;;;;5.60;4.23;;;12.60;99.90;;;;;;5127970;27;20440;-39
2021/08/25 02:48:23;;;;;;;7.70;4.40;;;12.50;99.90;;;;;;5127103;27;20420;-39
2021/08/25 02:50:49;;;;;;;5.13;3.50;;;12.60;99.90;;;;;;5111038;27;20460;-39
2021/08/25 02:53:16;;;;;;;5.37;4.13;;;12.70;99.90;;;;;;5128110;27;20283;-38
2021/08/25 02:55:42;;;;;;;4.77;3.70;;;12.70;99.90;;;;;;5127543;27;20210;-40
2021/08/25 02:58:08;;;;;;;4.67;4.10;;;12.70;99.90;;;;;;5128061;27;20429;-38
2021/08/25 03:00:33;;;;;;;4.10;3.60;;;12.60;99.90;;;;;;5127053;27;20209;-38
2021/08/25 03:02:59;;;;;;;6.10;4.17;;;12.60;99.90;;;;;;5127338;27;20179;-39
2021/08/25 03:05:25;;;;;;;5.70;3.90;;;12.50;99.90;;;;;;5113655;27;20195;-38
2021/08/25 03:07:50;;;;;;;5.07;3.83;;;12.60;99.90;;;;;;5127779;27;20195;-38
2021/08/25 03:10:16;;;;;;;4.43;3.93;;;12.60;99.90;;;;;;5126998;27;20258;-38
2021/08/25 03:12:42;;;;;;;7.57;4.57;;;12.70;99.90;;;;;;5127534;27;20183;-38
2021/08/25 03:15:08;;;;;;;5.83;4.90;;;12.60;99.90;;;;;;5110512;27;20701;-40
2021/08/25 03:17:34;;;;;;;7.40;4.43;;;12.70;99.90;;;;;;5106785;28;20191;-37
2021/08/25 03:19:59;;;;;;;5.10;4.20;;;12.80;99.90;;;;;;5110207;27;20424;-38
2021/08/25 03:22:28;;;;;;;5.80;4.20;;;12.80;99.90;;;;;;5127578;27;20190;-38
2021/08/25 03:24:54;;;;;;;6.10;3.97;;;12.70;99.90;;;;;;5110454;27;20638;-37
2021/08/25 03:27:20;;;;;;;4.87;4.30;;;12.70;99.90;;;;;;5108819;27;20533;-39
2021/08/25 03:29:45;;;;;;;7.57;4.70;;;12.50;99.90;;;;;;5126564;27;20570;-38
2021/08/25 03:32:11;;;;;;;5.70;4.37;;;12.40;99.90;;;;;;5126688;27;20194;-38
2021/08/25 03:34:36;;;;;;;5.10;3.90;;;12.40;99.90;;;;;;5121277;27;20743;-38
2021/08/25 03:37:03;;;;;;;5.73;4.17;;;12.30;99.90;;;;;;5121724;27;20266;-38
2021/08/25 03:39:29;;;;;;;4.30;3.90;;;12.20;99.90;;;;;;5125665;27;20347;-40
2021/08/25 03:41:55;;;;;;;5.93;4.97;;;12.20;99.90;;;;;;5127093;27;20483;-39
2021/08/25 03:44:21;;;;;;;5.33;4.10;;;12.30;99.90;;;;;;5127436;27;21114;-41
2021/08/25 03:46:46;;;;;;;6.57;5.00;;;12.40;99.90;;;;;;5126485;27;20352;-39
2021/08/25 03:49:12;;;;;;;6.90;4.10;;;12.30;99.90;;;;;;5122244;27;20175;-38
2021/08/25 03:51:38;;;;;;;5.23;4.43;;;12.30;99.90;;;;;;5120882;27;20606;-40
2021/08/25 03:54:03;;;;;;;5.53;4.70;;;12.30;99.90;;;;;;5126659;27;20186;-38
2021/08/25 03:56:29;;;;;;;6.07;4.63;;;12.30;99.90;;;;;;5127421;27;20295;-40
2021/08/25 03:58:54;;;;;;;6.43;5.03;;;12.20;99.90;;;;;;5126036;27;20191;-40
2021/08/25 04:01:20;;;;;;;7.97;4.80;;;12.10;99.90;;;;;;5127084;27;20194;-38
2021/08/25 04:03:47;;;;;;;6.90;4.17;;;12.10;99.90;;;;;;5108543;27;20198;-38
2021/08/25 04:06:12;;;;;;;4.70;4.13;;;12.10;99.90;;;;;;5115793;27;20537;-41
2021/08/25 04:08:38;;;;;;;5.80;4.67;;;12.10;99.90;;;;;;5126058;27;20440;-39
2021/08/25 04:11:04;;;;;;;5.40;4.87;;;12.10;99.90;;;;;;5126445;27;20187;-38
2021/08/25 04:13:29;;;;;;;5.93;5.20;;;12.10;99.90;;;;;;5124077;27;20720;-39
2021/08/25 04:15:55;;;;;;;4.73;4.27;;;11.90;99.90;;;;;;5105800;28;20276;-39
2021/08/25 04:18:21;;;;;;;4.97;4.33;;;12.00;99.90;;;;;;5106140;28;20175;-38
2021/08/25 04:20:46;;;;;;;7.20;4.50;;;12.00;99.90;;;;;;5112179;28;20727;-40
2021/08/25 04:23:12;;;;;;;7.50;5.67;;;12.00;99.90;;;;;;5124221;28;20273;-40
2021/08/25 04:25:38;;;;;;;6.07;4.40;;;11.90;99.90;;;;;;5126766;28;20495;-38
2021/08/25 04:28:04;;;;;;;5.00;4.47;;;11.90;99.90;;;;;;5126542;28;20639;-41
2021/08/25 04:30:30;;;;;;;5.43;4.93;;;11.90;99.90;;;;;;5125550;28;20428;-38
2021/08/25 04:32:55;;;;;;;6.23;5.07;;;11.80;99.90;;;;;;5108664;28;20455;-38
2021/08/25 04:35:21;;;;;;;6.23;5.40;;;11.80;99.90;;;;;;5117735;28;20211;-39
2021/08/25 04:37:47;;;;;;;7.90;4.67;;;11.80;99.90;;;;;;5124904;28;20183;-38
2021/08/25 04:40:13;;;;;;;6.50;5.20;;;12.00;99.90;;;;;;5125633;28;20190;-39
2021/08/25 04:42:39;;;;;;;5.17;4.67;;;12.10;99.90;;;;;;5125863;28;20195;-37
2021/08/25 04:45:05;;;;;;;7.73;5.10;;;12.20;99.90;;;;;;5125975;28;20435;-38
2021/08/25 04:47:30;;;;;;;6.30;4.70;;;12.30;99.90;;;;;;5108073;28;20207;-37
2021/08/25 04:49:56;;;;;;;6.53;5.00;;;12.20;99.90;;;;;;5119355;28;20917;-37
2021/08/25 04:52:21;;;;;;;7.40;5.63;;;12.20;99.90;;;;;;5122498;28;20564;-37
2021/08/25 04:54:47;;;;;;;5.50;5.03;;;12.20;99.90;;;;;;5107973;28;20615;-37
2021/08/25 04:57:13;;;;;;;5.80;4.77;;;12.40;99.90;;;;;;5087312;28;20210;-39
2021/08/25 04:59:38;;;;;;;8.93;5.20;;;12.40;99.90;;;;;;5123817;27;20646;-37
2021/08/25 05:02:04;;;;;;;5.77;5.20;;;12.50;99.90;;;;;;5111619;27;20186;-38
2021/08/25 05:04:30;;;;;;;5.73;5.13;;;12.50;99.90;;;;;;5128523;27;20254;-38
2021/08/25 05:06:55;;;;;;;5.60;4.93;;;12.50;99.90;;;;;;5122365;27;20420;-37
2021/08/25 05:09:21;;;;;;;5.80;5.20;;;12.50;99.90;;;;;;5125724;27;20231;-40
2021/08/25 05:11:47;;;;;;;6.47;5.77;;;12.50;99.90;;;;;;5111371;27;20187;-37
2021/08/25 05:14:12;;;;;;;6.47;4.93;;;12.50;99.90;;;;;;5120098;27;20684;-38
2021/08/25 05:16:38;;;;;;;7.17;5.53;;;12.50;99.90;;;;;;5109137;28;20224;-40
2021/08/25 05:19:03;;;;;;;7.80;5.70;;;12.50;99.90;;;;;;5112191;27;20705;-37
2021/08/25 05:21:29;;;;;;;6.57;5.90;;;12.50;99.90;;;;;;5123816;27;20646;-38
2021/08/25 05:23:55;;;;;;;9.70;7.33;;;12.40;99.90;;;;;;5127409;27;20195;-38
2021/08/25 05:26:20;;;;;;;7.80;6.27;;;12.30;99.90;;;;;;5126970;27;20273;-38
2021/08/25 05:28:46;;;;;;;7.40;6.60;;;12.30;99.90;;;;;;5128372;27;20530;-39
2021/08/25 05:31:12;;;;;;;8.50;6.47;;;12.30;99.90;;;;;;5129630;27;20443;-39
2021/08/25 05:33:37;;;;;;;7.40;6.70;;;12.30;99.90;;;;;;5111477;27;20249;-40
2021/08/25 05:36:03;;;;;;;6.83;6.13;;;12.40;99.90;;;;;;5120534;27;20574;-39
2021/08/25 05:38:29;;;;;;;7.77;6.60;;;12.40;99.90;;;;;;5128705;27;20239;-39
2021/08/25 05:40:55;;;;;;;7.53;6.77;;;12.40;99.90;;;;;;5126309;27;20909;-38
2021/08/25 05:43:20;;;;;;;6.63;6.03;;;12.40;99.90;;;;;;5130279;27;20176;-39
2021/08/25 05:45:46;;;;;;;9.07;5.97;;;12.40;99.90;;;;;;5113292;27;20187;-39
2021/08/25 05:48:12;;;;;;;6.67;6.00;;;12.50;99.90;;;;;;5090437;28;20227;-40
2021/08/25 05:50:37;;;;;;;5.97;5.37;;;12.60;99.90;;;;;;5109738;27;20187;-37
2021/08/25 05:53:03;;;;;;;7.60;6.77;;;12.70;99.90;;;;;;5123334;27;20352;-37
2021/08/25 05:55:29;;;;;;;6.93;6.20;;;12.80;99.90;;;;;;5126535;27;20210;-37
2021/08/25 05:57:55;;;;;;;5.90;5.30;;;12.90;99.90;;;;;;5129010;27;20523;-38
2021/08/25 06:00:20;;;;;;;6.73;5.60;;;12.90;99.90;;;;;;5128768;27;20203;-41
2021/08/25 06:02:46;;;;;;;6.63;5.30;;;13.00;99.90;;;;;;5128810;27;20175;-39
2021/08/25 06:05:14;;;;;;;6.70;5.30;;;13.10;99.90;;;;;;5122545;27;20195;-39
2021/08/25 06:07:40;;;;;;;7.83;6.40;;;13.20;99.90;;;;;;5126030;27;20520;-37
2021/08/25 06:10:07;;;;;;;6.27;5.67;;;13.20;99.90;;;;;;5128600;27;20913;-38
2021/08/25 06:12:33;;;;;;;5.30;4.80;;;13.30;99.90;;;;;;5128947;27;21003;-38
2021/08/25 06:14:59;;;;;;;6.77;5.80;;;13.40;99.90;;;;;;5126606;27;20460;-43
2021/08/25 06:17:25;;;;;;;6.87;6.17;;;13.50;99.90;;;;;;5110382;27;20424;-39
2021/08/25 06:19:51;;;;;;;6.57;5.87;;;13.60;99.90;;;;;;5127443;27;20190;-41
2021/08/25 06:22:17;;;;;;;6.73;5.80;;;13.70;99.90;;;;;;5121608;27;20474;-40
2021/08/25 06:24:42;;;;;;;7.33;6.50;;;13.80;99.90;;;;;;5128410;27;20416;-40
2021/08/25 06:27:08;;;;;;;7.60;5.90;;;13.90;99.90;;;;;;5128366;27;20220;-39
2021/08/25 06:29:34;;;;;;;6.57;5.80;;;14.00;99.90;;;;;;5128275;27;20259;-37
2021/08/25 06:32:00;;;;;;;6.73;5.37;;;14.10;99.90;;;;;;5127829;27;20771;-37
2021/08/25 06:34:26;;;;;;;6.53;5.90;;;14.20;99.90;;;;;;5126600;27;20236;-37
2021/08/25 06:36:51;;;;;;;6.27;5.13;;;14.30;99.90;;;;;;5121075;27;20544;-37
2021/08/25 06:39:17;;;;;;;5.60;5.10;;;14.40;99.90;;;;;;5126496;27;20179;-38
2021/08/25 06:41:43;;;;;;;12.30;5.70;;;14.60;99.90;;;;;;5125690;27;20183;-37
2021/08/25 06:44:08;;;;;;;6.60;5.20;;;14.70;99.90;;;;;;5125625;27;20199;-40
2021/08/25 06:46:34;;;;;;;5.63;5.03;;;14.80;99.90;;;;;;5127073;27;20210;-37
2021/08/25 06:49:00;;;;;;;5.70;4.70;;;15.00;99.90;;;;;;5109648;27;20261;-37
2021/08/25 06:51:25;;;;;;;6.30;4.97;;;15.10;99.90;;;;;;5106701;27;20563;-38
2021/08/25 06:53:51;;;;;;;6.43;5.23;;;15.30;99.90;;;;;;5121294;27;20344;-38
2021/08/25 06:56:17;;;;;;;5.63;4.60;;;15.40;99.90;;;;;;5123014;27;20209;-38
2021/08/25 06:58:42;;;;;;;7.10;5.07;;;15.60;99.90;;;;;;5127242;27;20206;-38
2021/08/25 07:01:08;;;;;;;5.70;4.97;;;15.70;99.90;;;;;;5127990;27;20175;-39
2021/08/25 07:03:37;;;;;;;7.27;5.47;;;15.80;99.90;;;;;;5127966;27;20187;-37
2021/08/25 07:06:02;;;;;;;5.47;4.97;;;15.80;99.90;;;;;;5124098;27;20183;-37
2021/08/25 07:08:28;;;;;;;4.70;4.20;;;15.90;99.90;;;;;;5124072;27;21033;-38
2021/08/25 07:10:54;;;;;;;5.73;5.03;;;15.90;99.90;;;;;;5117719;27;20256;-38
2021/08/25 07:13:20;;;;;;;5.40;4.40;;;16.00;99.90;;;;;;5116790;27;20464;-37
2021/08/25 07:15:45;;;;;;;6.50;5.33;;;16.20;99.90;;;;;;5127745;27;20218;-37
2021/08/25 07:18:11;;;;;;;6.00;4.97;;;16.30;99.90;;;;;;5127467;27;20251;-37
2021/08/25 07:20:38;;;;;;;7.43;4.73;;;16.40;99.90;;;;;;5125236;27;20293;-37
2021/08/25 07:23:03;;;;;;;7.87;5.83;;;16.50;99.90;;;;;;5114397;27;20658;-38
2021/08/25 07:25:29;;;;;;;7.07;4.73;;;16.50;99.90;;;;;;5125561;27;20642;-38
2021/08/25 07:27:55;;;;;;;7.30;4.80;;;16.60;99.90;;;;;;5126630;27;20191;-38
2021/08/25 07:30:20;;;;;;;4.90;4.40;;;16.60;99.90;;;;;;5126861;27;20550;-38
2021/08/25 07:32:46;;;;;;;4.90;4.27;;;16.70;99.90;;;;;;5127391;27;20214;-37
2021/08/25 07:35:12;;;;;;;6.20;4.70;;;16.70;99.90;;;;;;5127372;27;20589;-38
2021/08/25 07:37:38;;;;;;;6.63;4.87;;;16.70;99.90;;;;;;5112719;27;20191;-38
2021/08/25 07:40:06;;;;;;;6.10;4.70;;;16.70;99.90;;;;;;5119784;27;20473;-37
2021/08/25 07:42:32;;;;;;;5.30;4.13;;;16.70;99.90;;;;;;5127306;27;20421;-38
2021/08/25 07:44:57;;;;;;;5.83;3.60;;;16.70;99.90;;;;;;5127168;27;20563;-38
2021/08/25 07:47:23;;;;;;;7.50;3.73;;;16.70;99.90;;;;;;5127873;27;20560;-38
2021/08/25 07:49:49;;;;;;;5.33;3.67;;;16.70;99.90;;;;;;5127817;27;20183;-38
2021/08/25 07:52:14;;;;;;;5.93;3.97;;;16.80;99.90;;;;;;5117528;27;20565;-39
2021/08/25 07:54:40;;;;;;;6.17;4.47;;;16.80;99.90;;;;;;5126697;27;20235;-38
2021/08/25 07:57:06;;;;;;;5.60;3.50;;;16.90;99.90;;;;;;5127036;27;20185;-38
2021/08/25 07:59:32;;;;;;;4.73;3.30;;;17.00;99.90;;;;;;5107563;27;20198;-38
2021/08/25 08:01:57;;;;;;;5.63;3.37;;;17.00;99.90;;;;;;5126717;27;20179;-41
2021/08/25 08:04:24;;;;;;;5.00;3.50;;;17.10;99.90;;;;;;5126850;27;20625;-38
2021/08/25 08:06:49;;;;;;;5.20;3.73;;;17.10;99.90;;;;;;5121442;27;20249;-38
2021/08/25 08:09:15;;;;;;;6.93;3.80;;;17.20;99.90;;;;;;5103285;28;20441;-38
2021/08/25 08:11:41;;;;;;;5.33;4.17;;;17.20;99.90;;;;;;5124464;27;20175;-38
2021/08/25 08:14:08;;;;;;;5.50;3.87;;;17.10;99.90;;;;;;5117895;27;20526;-40
2021/08/25 08:16:36;;;;;;;5.40;4.20;;;17.10;99.90;;;;;;5124803;27;20217;-39
2021/08/25 08:19:23;;;;;;;5.70;3.67;;;17.20;99.90;;;;;;5126180;27;20515;-39
2021/08/25 08:21:50;;;;;;;4.90;3.87;;;17.20;99.90;;;;;;5118879;28;20477;-39
2021/08/25 08:24:16;;;;;;;5.77;3.53;;;17.30;99.90;;;;;;5122120;28;20413;-38
2021/08/25 08:26:42;;;;;;;6.20;3.90;;;17.30;99.90;;;;;;5120268;28;20420;-39
2021/08/25 08:29:08;;;;;;;6.27;3.60;;;17.30;99.90;;;;;;5125855;28;20787;-38
2021/08/25 08:31:34;;;;;;;4.50;3.60;;;17.40;99.90;;;;;;5126368;28;20424;-38
2021/08/25 08:34:00;;;;;;;6.43;3.60;;;17.40;99.90;;;;;;5111145;27;20458;-38
2021/08/25 08:36:26;;;;;;;5.33;3.77;;;17.50;99.90;;;;;;5126841;27;20215;-38
2021/08/25 08:38:52;;;;;;;7.77;4.30;;;17.60;99.90;;;;;;5104996;27;20206;-40
2021/08/25 08:41:17;;;;;;;6.37;3.80;;;17.60;99.90;;;;;;5110708;27;20189;-38
2021/08/25 08:43:45;;;;;;;7.17;4.87;;;17.70;99.90;;;;;;5129237;27;20807;-39
2021/08/25 08:46:15;;;;;;;7.90;4.93;;;17.70;99.90;;;;;;5111998;27;20241;-39
2021/08/25 08:48:42;;;;;;;8.70;3.97;;;17.80;99.90;;;;;;5129891;27;20443;-41
2021/08/25 08:51:14;;;;;;;5.03;3.83;;;17.90;99.90;;;;;;5130364;27;20483;-41
2021/08/25 08:53:40;;;;;;;5.10;3.90;;;18.00;99.90;;;;;;5122072;27;20623;-38
2021/08/25 08:56:06;;;;;;;6.50;4.17;;;18.10;99.90;;;;;;5130135;27;20841;-38
2021/08/25 08:58:32;;;;;;;5.90;4.40;;;18.20;99.90;;;;;;5130669;27;20183;-38
2021/08/25 09:00:58;;;;;;;8.03;4.20;;;18.20;99.90;;;;;;5129739;27;20465;-38
2021/08/25 09:03:28;;;;;;;5.83;4.40;;;18.30;99.90;;;;;;5129760;27;20183;-38
2021/08/25 09:05:58;;;;;;;6.37;4.23;;;18.50;99.90;;;;;;5129609;27;20284;-40
2021/08/25 09:08:27;;;;;;;7.57;4.23;;;18.50;99.90;;;;;;5119333;27;20466;-39
2021/08/25 09:11:01;;;;;;;5.77;4.30;;;18.60;99.90;;;;;;5128891;27;20420;-39
2021/08/25 09:13:38;;;;;;;11.63;5.60;;;18.60;99.90;;;;;;5127320;27;20834;-39
2021/08/25 09:16:04;;;;;;;6.93;4.27;;;18.80;99.90;;;;;;5119474;27;20461;-39
2021/08/25 09:18:30;;;;;;;5.93;3.93;;;18.80;99.90;;;;;;5129468;27;20459;-38
2021/08/25 09:20:56;;;;;;;8.23;4.80;;;18.90;99.90;;;;;;5129356;27;20420;-39
2021/08/25 09:23:27;;;;;;;8.67;5.03;;;19.00;99.90;;;;;;5116564;27;20898;-44
2021/08/25 09:25:59;;;;;;;5.97;4.53;;;19.00;99.90;;;;;;5129578;27;20424;-40
2021/08/25 09:28:32;;;;;;;6.80;4.57;;;19.10;99.90;;;;;;5129315;27;20432;-39
2021/08/25 09:31:00;;;;;;;6.00;5.10;;;19.20;99.90;;;;;;5129170;27;20919;-39
2021/08/25 09:33:28;;;;;;;6.80;5.20;;;19.30;99.90;;;;;;5129697;27;20503;-39
2021/08/25 09:35:59;;;;;;;6.67;4.10;;;19.30;99.90;;;;;;5129616;27;20448;-39
2021/08/25 09:38:27;;;;;;;5.67;4.00;;;19.50;99.90;;;;;;5120466;27;20430;-40
2021/08/25 09:40:56;;;;;;;6.80;4.30;;;19.60;99.90;;;;;;5127694;27;20426;-40
2021/08/25 09:43:32;;;;;;;6.93;4.47;;;19.80;99.90;;;;;;5129816;27;20408;-41
2021/08/25 09:46:09;;;;;;;5.13;4.00;;;19.90;99.90;;;;;;5128164;27;20412;-38
2021/08/25 09:48:39;;;;;;;4.97;3.40;;;20.10;99.90;;;;;;5129444;27;20818;-39
2021/08/25 09:51:06;;;;;;;5.57;4.00;;;20.20;99.90;;;;;;5128910;27;20409;-38
2021/08/25 09:53:32;;;;;;;8.00;5.17;;;20.20;99.90;;;;;;5116080;27;20506;-40
2021/08/25 09:55:58;;;;;;;3.40;3.00;;;20.10;99.90;;;;;;5128830;27;20453;-39
2021/08/25 09:58:24;;;;;;;6.63;4.47;;;20.10;99.90;;;;;;5129285;27;20424;-39
2021/08/25 10:00:53;;;;;;;6.30;3.97;;;20.10;99.90;;;;;;5128100;27;20175;-41
2021/08/25 10:03:19;;;;;;;6.10;3.33;;;20.00;99.90;;;;;;5129315;27;20456;-38
2021/08/25 10:05:46;;;;;;;5.63;3.80;;;20.00;99.90;;;;;;5128722;27;20459;-38
2021/08/25 10:08:14;;;;;;;7.00;3.40;;;20.10;99.90;;;;;;5118395;27;20799;-38
2021/08/25 10:10:40;;;;;;;8.87;4.47;;;20.20;99.90;;;;;;5128089;27;21188;-39
2021/08/25 10:13:06;;;;;;;5.00;3.37;;;20.30;99.90;;;;;;5129291;27;20463;-39
2021/08/25 10:15:33;;;;;;;5.30;3.80;;;20.50;99.90;;;;;;5115237;27;20460;-40
2021/08/25 10:18:00;;;;;;;6.23;4.13;;;20.60;99.90;;;;;;5128838;27;20696;-39
2021/08/25 10:20:26;;;;;;;5.70;3.67;;;20.70;99.90;;;;;;5128072;27;20628;-39
2021/08/25 10:22:53;;;;;;;6.13;4.20;;;20.80;99.90;;;;;;5123098;27;20425;-40
2021/08/25 10:25:19;;;;;;;6.60;4.00;;;20.90;99.90;;;;;;5124626;27;20191;-41
2021/08/25 10:28:14;;;;;;;4.80;3.27;;;21.00;99.90;;;;;;5128456;27;20412;-38
2021/08/25 10:30:45;;;;;;;5.37;3.77;;;21.10;99.90;;;;;;5106079;27;20432;-40
2021/08/25 10:33:13;;;;;;;11.87;6.20;;;21.20;99.90;;;;;;5128143;27;20798;-40
2021/08/25 10:35:43;;;;;;;7.03;4.20;;;21.20;98.80;;;;;;5128476;27;20591;-41
2021/08/25 10:38:27;;;;;;;6.20;3.70;;;21.20;98.90;;;;;;5105036;27;20903;-39
2021/08/25 10:41:00;;;;;;;6.60;4.27;;;21.40;99.40;;;;;;5121164;27;21007;-40
2021/08/25 10:43:41;;;;;;;5.00;3.87;;;21.40;98.60;;;;;;5127069;27;20512;-40
2021/08/25 10:46:17;;;;;;;6.20;3.80;;;21.50;99.40;;;;;;5128441;27;20446;-39
2021/08/25 10:48:42;;;;;;;6.03;3.90;;;21.50;97.60;;;;;;5127740;27;20732;-42
2021/08/25 10:51:37;;;;;;;5.17;3.73;;;21.60;98.40;;;;;;5128159;27;20499;-44
2021/08/25 10:54:05;;;;;;;8.43;3.90;;;21.60;97.60;;;;;;5124083;27;20195;-40
2021/08/25 10:56:45;;;;;;;4.40;3.50;;;21.60;97.30;;;;;;5127758;27;21042;-40
2021/08/25 10:59:17;;;;;;;4.53;3.60;;;21.60;96.80;;;;;;5127369;27;20421;-39
2021/08/25 11:01:48;;;;;;;5.20;3.63;;;21.60;97.60;;;;;;5109599;27;20428;-39
2021/08/25 11:04:16;;;;;;;4.77;3.50;;;21.60;96.60;;;;;;5114400;27;20840;-40
2021/08/25 11:06:52;;;;;;;5.00;3.57;;;21.60;97.10;;;;;;5128399;27;20427;-42
2021/08/25 11:09:19;;;;;;;6.27;3.50;;;21.70;97.60;;;;;;5118405;27;20988;-41
2021/08/25 11:11:51;;;;;;;6.10;3.70;;;21.70;97.50;;;;;;5127588;27;20421;-39
2021/08/25 11:14:22;;;;;;;6.53;3.90;;;21.80;96.30;;;;;;5117620;27;20783;-39
2021/08/25 11:16:49;;;;;;;4.33;3.67;;;21.80;97.60;;;;;;5116698;27;20615;-38
2021/08/25 11:19:29;;;;;;;5.13;3.80;;;21.90;97.80;;;;;;5127023;27;20821;-40
2021/08/25 11:21:57;;;;;;;5.67;4.03;;;22.00;97.50;;;;;;5109377;27;20433;-39
2021/08/25 11:24:23;;;;;;;5.60;4.07;;;22.10;97.90;;;;;;5120066;27;20437;-40
2021/08/25 11:26:49;;;;;;;7.30;4.30;;;22.20;97.30;;;;;;5127704;27;20795;-39
2021/08/25 11:29:20;;;;;;;5.80;4.43;;;22.20;96.90;;;;;;5126605;27;20867;-42
2021/08/25 11:31:46;;;;;;;8.20;4.20;;;22.30;98.10;;;;;;5127723;27;21099;-38
2021/08/25 11:34:15;;;;;;;5.87;4.07;;;22.30;98.00;;;;;;5127385;27;20775;-39
2021/08/25 11:37:02;;;;;;;5.73;3.80;;;22.30;97.60;;;;;;5127947;27;20900;-40
2021/08/25 11:39:29;;;;;;;5.20;3.70;;;22.30;97.70;;;;;;5124897;27;20413;-41
2021/08/25 11:41:56;;;;;;;6.10;3.80;;;22.40;97.50;;;;;;5128472;27;20832;-39
2021/08/25 11:44:38;;;;;;;6.10;3.77;;;22.50;97.60;;;;;;5126256;27;20745;-39
2021/08/25 11:47:14;;;;;;;6.47;4.23;;;22.60;98.20;;;;;;5126284;27;20499;-40
2021/08/25 11:49:40;;;;;;;6.10;4.53;;;22.70;97.80;;;;;;5112839;27;20419;-39
2021/08/25 11:52:11;;;;;;;5.07;4.10;;;22.70;97.70;;;;;;5107670;27;20958;-38
2021/08/25 11:54:38;;;;;;;5.67;3.80;;;22.70;97.00;;;;;;5096473;27;20437;-40
2021/08/25 11:57:05;;;;;;;5.40;4.00;;;22.80;97.60;;;;;;5125344;27;20427;-39
2021/08/25 11:59:31;;;;;;;6.20;4.30;;;22.80;96.30;;;;;;5105924;28;20453;-45
2021/08/25 12:02:07;;;;;;;6.10;4.03;;;22.80;97.00;;;;;;5114817;27;20461;-41
2021/08/25 12:04:33;;;;;;;7.40;5.00;;;22.80;97.20;;;;;;5127082;27;20424;-40
2021/08/25 12:06:59;;;;;;;6.47;4.50;;;22.80;95.70;;;;;;5126720;27;20429;-40
2021/08/25 12:09:34;;;;;;;6.30;4.30;;;22.70;96.80;;;;;;5093896;27;20828;-40
2021/08/25 12:12:00;;;;;;;5.20;3.57;;;22.70;95.70;;;;;;5123856;27;20459;-39
2021/08/25 12:14:26;;;;;;;4.20;3.70;;;22.70;97.00;;;;;;5116402;27;20454;-39
2021/08/25 12:17:06;;;;;;;5.07;3.93;;;22.80;97.40;;;;;;5093953;28;20515;-41
2021/08/25 12:19:34;;;;;;;5.23;3.83;;;22.90;96.80;;;;;;5126487;27;20691;-39
2021/08/25 12:22:20;;;;;;;6.07;4.30;;;23.00;96.00;;;;;;5108326;28;20420;-41
2021/08/25 12:24:46;;;;;;;6.50;4.77;;;23.00;95.70;;;;;;5116600;28;20439;-40
2021/08/25 12:27:12;;;;;;;9.30;5.20;;;23.00;95.60;;;;;;5126306;28;20927;-42
2021/08/25 12:29:42;;;;;;;6.37;4.77;;;23.00;95.10;;;;;;5125765;28;20202;-41
2021/08/25 12:32:08;;;;;;;6.53;4.20;;;23.00;94.50;;;;;;5126792;28;20425;-41
2021/08/25 12:34:34;;;;;;;5.63;3.73;;;22.90;95.70;;;;;;5126803;28;20519;-40
2021/08/25 12:37:01;;;;;;;6.17;4.57;;;22.90;95.80;;;;;;5126559;28;20183;-39
2021/08/25 12:39:28;;;;;;;5.40;3.93;;;23.00;95.40;;;;;;5118624;28;20193;-38
2021/08/25 12:41:56;;;;;;;6.63;4.47;;;23.00;95.60;;;;;;5124686;28;20425;-40
2021/08/25 12:44:23;;;;;;;4.90;3.90;;;23.10;96.50;;;;;;5125949;28;20416;-40
2021/08/25 12:46:49;;;;;;;4.83;3.70;;;23.20;96.20;;;;;;5126583;28;20432;-42